Time;durP1;ratioP1;P1;durP2;ratioP2;P2;SDS_P1;SDS_P2;PMS_P1;PMS_P2;Temp;Humidity;BMP_temperature;BMP_pressure;BME280_temperature;BME280_humidity;BME280_pressure;Samples;Min_cycle;Max_cycle;Signal;HPM_P1;HPM_P2
2022/07/04 00:00:22;;;;;;;10.33;4.50;;;;;;;21.26;50.66;99290.09;5035863;28;20197;-91
2022/07/04 00:02:49;;;;;;;9.13;4.70;;;;;;;19.53;50.62;99000.28;5034149;28;20170;-91
2022/07/04 00:05:15;;;;;;;11.30;4.70;;;;;;;22.58;50.86;99529.69;5035981;28;20164;-90
2022/07/04 00:07:43;;;;;;;8.60;4.67;;;;;;;22.59;50.77;99509.00;5033594;28;20166;-90
2022/07/04 00:10:11;;;;;;;13.40;4.67;;;;;;;22.50;51.14;99505.59;5034684;28;20166;-89
2022/07/04 00:12:36;;;;;;;11.17;4.97;;;;;;;21.62;51.33;99371.63;5035338;28;20253;-90
2022/07/04 00:15:04;;;;;;;10.23;4.60;;;;;;;21.51;51.09;99338.16;5035511;28;20260;-90
2022/07/04 00:17:30;;;;;;;9.47;4.40;;;;;;;21.78;51.18;99389.63;5035924;28;20192;-90
2022/07/04 00:19:55;;;;;;;7.23;4.13;;;;;;;20.92;51.12;99245.47;5038033;28;20272;-90
2022/07/04 00:22:21;;;;;;;8.03;4.40;;;;;;;20.96;50.58;99251.44;5055989;28;20158;-86
2022/07/04 00:24:46;;;;;;;12.50;4.47;;;;;;;19.84;50.58;99071.34;5058482;28;20166;-88
2022/07/04 00:27:12;;;;;;;6.00;4.20;;;;;;;20.19;50.35;99115.94;5044738;28;20178;-89
2022/07/04 00:29:37;;;;;;;7.30;4.80;;;;;;;19.87;50.63;99058.53;5035568;28;20162;-90
2022/07/04 00:32:03;;;;;;;6.33;4.50;;;;;;;22.34;50.70;99455.75;5035278;28;20572;-90
2022/07/04 00:34:29;;;;;;;6.53;4.50;;;;;;;22.44;51.56;99483.25;5034352;28;20215;-89
2022/07/04 00:36:54;;;;;;;7.87;4.77;;;;;;;20.78;50.91;99194.84;5034907;28;20154;-90
2022/07/04 00:39:21;;;;;;;12.57;4.77;;;;;;;19.75;50.52;99005.41;5034335;28;20226;-90
2022/07/04 00:41:46;;;;;;;10.00;4.97;;;;;;;21.64;50.88;99318.41;5033515;28;20642;-91
2022/07/04 00:44:13;;;;;;;11.73;5.50;;;;;;;22.59;51.34;99490.09;5050798;28;20172;-91
2022/07/04 00:46:38;;;;;;;8.43;5.10;;;;;;;22.63;51.68;99494.38;5034805;28;20193;-91
2022/07/04 00:49:05;;;;;;;8.33;4.60;;;;;;;20.48;53.20;99152.84;5034826;28;20158;-91
2022/07/04 00:51:31;;;;;;;10.60;5.30;;;;;;;22.39;53.34;99484.13;5035192;28;20193;-90
2022/07/04 00:53:56;;;;;;;11.13;5.23;;;;;;;20.99;53.80;99238.59;5035551;28;20178;-91
2022/07/04 00:56:23;;;;;;;9.30;6.30;;;;;;;20.37;53.54;99158.84;5036015;28;20170;-91
2022/07/04 00:58:50;;;;;;;12.83;7.30;;;;;;;19.77;54.61;99061.94;5035271;28;20178;-91
2022/07/04 01:01:15;;;;;;;9.60;5.27;;;;;;;21.31;55.01;99326.16;5037984;28;20232;-90
2022/07/04 01:03:41;;;;;;;11.97;4.93;;;;;;;22.09;56.08;99457.53;5034430;28;20173;-90
2022/07/04 01:06:10;;;;;;;10.47;4.80;;;;;;;21.31;56.68;99364.78;5034630;28;20169;-89
2022/07/04 01:08:41;;;;;;;14.53;5.30;;;;;;;19.71;57.55;99096.19;5033887;28;20625;-89
2022/07/04 01:11:08;;;;;;;8.00;5.00;;;;;;;21.77;57.94;99451.50;5035311;28;20196;-89
2022/07/04 01:13:34;;;;;;;9.77;5.27;;;;;;;20.01;58.20;99159.63;5033916;28;20177;-91
2022/07/04 01:15:59;;;;;;;8.53;5.13;;;;;;;19.95;58.85;99187.88;5036342;28;20182;-91
2022/07/04 01:18:25;;;;;;;8.87;5.20;;;;;;;20.65;59.31;99275.47;5035771;28;20182;-90
2022/07/04 01:20:51;;;;;;;7.50;5.27;;;;;;;19.82;59.83;99150.16;5037097;28;20229;-91
2022/07/04 01:23:17;;;;;;;9.37;5.17;;;;;;;21.62;59.54;99467.81;5037827;28;20235;-91
2022/07/04 01:25:43;;;;;;;9.83;5.77;;;;;;;17.77;60.37;98819.22;5035354;28;20237;-91
2022/07/04 01:28:09;;;;;;;10.30;5.43;;;;;;;19.99;60.65;99210.16;5041791;28;20173;-91
2022/07/04 01:30:36;;;;;;;11.63;5.27;;;;;;;18.43;61.34;98954.50;5034794;28;20157;-87
2022/07/04 01:33:02;;;;;;;9.43;5.43;;;;;;;17.92;62.21;98884.19;5034409;28;20170;-88
2022/07/04 01:35:29;;;;;;;11.53;5.10;;;;;;;21.21;62.66;99430.88;5032718;28;20181;-87
2022/07/04 01:37:54;;;;;;;11.20;5.67;;;;;;;19.37;61.73;99141.38;5034237;28;20173;-90
2022/07/04 01:40:20;;;;;;;9.40;6.13;;;;;;;19.29;61.88;99107.13;5034320;28;20186;-89
2022/07/04 01:42:45;;;;;;;12.20;6.87;;;;;;;17.70;61.52;98795.28;5034905;28;20162;-87
2022/07/04 01:45:11;;;;;;;9.87;6.47;;;;;;;18.86;61.91;99005.16;5034167;28;20170;-89
2022/07/04 01:47:37;;;;;;;12.23;7.30;;;;;;;20.44;61.43;99289.13;5034682;28;20620;-90
2022/07/04 01:50:04;;;;;;;10.83;6.13;;;;;;;21.39;60.88;99428.31;5035800;28;20162;-90
2022/07/04 01:52:30;;;;;;;10.90;6.20;;;;;;;20.93;60.47;99339.81;5035115;28;20170;-91
2022/07/04 01:54:56;;;;;;;13.50;7.30;;;;;;;18.60;59.99;98955.47;5037635;28;20169;-91
2022/07/04 01:57:21;;;;;;;7.63;5.67;;;;;;;19.24;60.86;99056.63;5039320;28;20170;-91
2022/07/04 02:02:30;;;;;;;14.30;6.60;;;;;;;19.70;62.43;99139.81;5038973;28;20741;-91
2022/07/04 02:04:56;;;;;;;11.27;6.70;;;;;;;20.81;63.23;99375.84;5037903;28;20158;-92
2022/07/04 02:07:21;;;;;;;12.80;6.80;;;;;;;18.61;63.40;98986.25;5038386;28;20177;-92
2022/07/04 02:09:47;;;;;;;14.73;6.30;;;;;;;19.87;63.80;99243.50;5037691;28;20569;-90
2022/07/04 02:14:56;;;;;;;13.70;7.60;;;;;;;20.49;64.43;99338.91;5039439;28;20165;-90
2022/07/04 02:17:22;;;;;;;18.90;8.93;;;;;;;20.97;65.17;99448.81;5037558;28;20169;-90
2022/07/04 02:19:47;;;;;;;19.77;9.43;;;;;;;20.65;65.03;99389.53;5038608;28;20732;-90
2022/07/04 02:22:14;;;;;;;18.77;7.53;;;;;;;17.97;64.91;98976.41;5039324;28;20245;-90
2022/07/04 02:24:40;;;;;;;19.67;8.87;;;;;;;18.90;64.26;99127.44;5038755;28;20205;-91
2022/07/04 02:27:05;;;;;;;18.00;8.60;;;;;;;18.84;64.49;99123.13;5039945;28;20634;-90
2022/07/04 02:29:31;;;;;;;16.87;7.70;;;;;;;19.55;66.06;99245.09;5040329;28;20248;-91
2022/07/04 02:31:56;;;;;;;12.77;7.63;;;;;;;19.76;64.38;99291.41;5037103;28;20170;-90
2022/07/04 02:34:22;;;;;;;15.50;7.73;;;;;;;19.04;63.42;99187.41;5036839;28;20174;-90
2022/07/04 02:36:47;;;;;;;16.43;8.07;;;;;;;19.34;63.48;99249.19;5036467;28;20174;-89
2022/07/04 02:39:13;;;;;;;13.43;7.00;;;;;;;17.45;63.59;98954.59;5053472;28;20193;-90
2022/07/04 02:41:38;;;;;;;14.93;7.33;;;;;;;18.18;64.07;99061.13;5036705;28;20184;-90
2022/07/04 02:44:04;;;;;;;12.40;7.37;;;;;;;19.35;64.13;99260.34;5049263;28;20161;-90
2022/07/04 02:46:32;;;;;;;16.37;8.20;;;;;;;17.96;64.14;98997.75;5059885;28;20170;-90
2022/07/04 02:48:58;;;;;;;15.67;7.27;;;;;;;20.40;66.49;99416.00;5054783;28;20166;-91
2022/07/04 02:51:24;;;;;;;13.37;7.30;;;;;;;19.16;66.51;99226.00;5038030;28;20166;-90
2022/07/04 02:53:49;;;;;;;17.33;8.60;;;;;;;20.68;66.21;99481.31;5036586;28;20181;-92
2022/07/04 02:56:15;;;;;;;9.53;6.63;;;;;;;19.75;63.86;99353.94;5035991;28;20162;-86
2022/07/04 02:58:40;;;;;;;11.53;6.70;;;;;;;18.17;64.91;99042.31;5053228;28;20558;-92
2022/07/04 03:01:06;;;;;;;8.97;6.33;;;;;;;18.18;63.79;99035.50;5040976;28;20249;-91
2022/07/04 03:03:31;;;;;;;11.67;6.53;;;;;;;20.80;63.71;99492.50;5035706;28;20551;-88
2022/07/04 03:05:56;;;;;;;11.47;6.23;;;;;;;17.25;65.76;98946.72;5036235;28;20166;-90
2022/07/04 03:08:22;;;;;;;11.27;6.30;;;;;;;19.33;67.06;99363.03;5036996;28;20167;-91
2022/07/04 03:10:51;;;;;;;11.57;6.63;;;;;;;17.65;68.61;99104.16;5036919;28;20162;-87
2022/07/04 03:13:17;;;;;;;10.80;7.07;;;;;;;18.32;69.52;99218.44;5036556;28;20519;-89
2022/07/04 03:15:42;;;;;;;11.07;6.60;;;;;;;20.00;69.53;99484.28;5034862;28;20166;-90
2022/07/04 03:18:08;;;;;;;8.07;6.70;;;;;;;18.84;70.75;99323.22;5035667;28;20185;-91
2022/07/04 03:20:33;;;;;;;11.73;6.90;;;;;;;19.26;71.21;99371.50;5050809;28;20229;-88
2022/07/04 03:22:59;;;;;;;12.50;6.43;;;;;;;17.56;72.19;99094.69;5037424;28;20615;-90
2022/07/04 03:25:24;;;;;;;10.60;6.80;;;;;;;18.26;72.75;99220.94;5035185;28;20178;-89
2022/07/04 03:27:50;;;;;;;9.93;7.07;;;;;;;17.45;73.49;99129.50;5036724;28;20653;-91
2022/07/04 03:30:15;;;;;;;11.27;6.80;;;;;;;17.43;75.01;99158.47;5036308;28;20173;-91
2022/07/04 03:32:41;;;;;;;10.63;7.03;;;;;;;18.43;76.93;99349.25;5036166;28;20154;-92
2022/07/04 03:35:06;;;;;;;8.80;6.77;;;;;;;16.79;78.63;99093.66;5036144;28;20240;-89
2022/07/04 03:37:32;;;;;;;11.43;7.10;;;;;;;18.90;81.72;99480.66;5034878;28;20158;-86
2022/07/04 03:39:57;;;;;;;13.03;7.73;;;;;;;18.82;82.96;99467.69;5034085;28;20273;-88
2022/07/04 03:42:23;;;;;;;15.53;7.50;;;;;;;16.66;82.03;99057.69;5036112;28;20170;-88
2022/07/04 03:44:48;;;;;;;15.97;7.60;;;;;;;16.32;82.15;99016.28;5035754;28;20174;-87
2022/07/04 03:47:14;;;;;;;15.00;6.90;;;;;;;18.35;81.60;99335.50;5051960;28;20178;-88
2022/07/04 03:49:39;;;;;;;18.33;7.73;;;;;;;18.27;81.42;99307.19;5039568;28;20252;-87
2022/07/04 03:52:05;;;;;;;13.87;7.63;;;;;;;17.53;81.99;99199.59;5033738;28;20249;-88
2022/07/04 03:54:31;;;;;;;13.93;7.80;;;;;;;18.25;83.61;99327.69;5032623;28;20219;-88
2022/07/04 03:56:56;;;;;;;15.77;7.77;;;;;;;16.45;85.22;99053.94;5004655;28;20318;-87
2022/07/04 03:59:22;;;;;;;14.80;7.27;;;;;;;18.10;85.91;99335.19;5031716;28;20209;-86
2022/07/04 04:01:48;;;;;;;16.53;7.93;;;;;;;18.67;88.04;99454.72;5042493;28;20268;-86
2022/07/04 04:06:58;;;;;;;16.33;7.73;;;;;;;18.70;88.85;99458.19;5032564;28;20193;-87
2022/07/04 04:09:24;;;;;;;11.97;7.23;;;;;;;18.13;87.27;99324.97;5014452;28;20194;-86
2022/07/04 04:11:51;;;;;;;12.40;7.90;;;;;;;19.22;85.89;99481.84;5012330;28;20187;-87
2022/07/04 04:14:16;;;;;;;12.67;7.57;;;;;;;18.23;84.57;99290.09;5015309;28;21029;-86
2022/07/04 04:16:42;;;;;;;12.80;7.50;;;;;;;18.17;83.44;99215.69;5031771;28;20190;-85
2022/07/04 04:19:09;;;;;;;9.53;7.17;;;;;;;17.75;83.15;99190.47;5031904;28;20657;-88
2022/07/04 04:21:34;;;;;;;11.33;7.30;;;;;;;17.25;82.44;99056.75;5032863;28;20771;-87
2022/07/04 04:24:00;;;;;;;11.97;7.80;;;;;;;19.48;81.22;99387.09;5030575;28;20194;-85
2022/07/04 04:26:25;;;;;;;12.80;7.90;;;;;;;17.72;79.03;99013.75;5023684;28;20185;-88
2022/07/04 04:28:51;;;;;;;11.93;7.90;;;;;;;20.52;77.63;99422.06;5035352;28;20237;-90
2022/07/04 04:31:17;;;;;;;14.33;8.00;;;;;;;18.71;75.53;99077.75;5037660;28;20182;-89
2022/07/04 04:33:42;;;;;;;12.23;7.90;;;;;;;19.73;74.59;99225.47;5038196;28;20185;-90
2022/07/04 04:36:08;;;;;;;11.93;8.00;;;;;;;18.91;74.03;99080.44;5036475;28;20254;-90
2022/07/04 04:38:33;;;;;;;11.50;7.50;;;;;;;21.09;74.68;99474.63;5035984;28;20174;-91
2022/07/04 04:40:59;;;;;;;12.10;7.63;;;;;;;21.07;74.42;99448.00;5036760;28;20202;-90
2022/07/04 04:43:24;;;;;;;16.30;9.03;;;;;;;21.55;72.92;99455.81;5038012;28;20182;-90
2022/07/04 04:45:49;;;;;;;16.47;9.30;;;;;;;20.63;71.58;99265.16;5037382;28;20655;-89
2022/07/04 04:48:15;;;;;;;16.40;9.43;;;;;;;22.18;70.59;99480.72;5035370;28;20736;-89
2022/07/04 04:50:43;;;;;;;14.80;9.20;;;;;;;20.48;69.80;99180.28;5035321;28;20189;-91
2022/07/04 04:53:08;;;;;;;14.50;9.67;;;;;;;22.46;68.88;99478.94;5035361;28;20182;-89
2022/07/04 04:55:34;;;;;;;13.67;7.77;;;;;;;21.62;69.52;99395.69;5035735;28;20188;-89
2022/07/04 04:57:59;;;;;;;12.77;7.93;;;;;;;18.90;70.89;98999.19;5018735;28;20230;-87
2022/07/04 05:00:25;;;;;;;13.60;7.87;;;;;;;21.75;71.19;99490.16;5013268;28;20207;-90
2022/07/04 05:02:50;;;;;;;12.80;7.20;;;;;;;20.58;70.12;99216.28;5011113;28;20220;-90
2022/07/04 05:05:15;;;;;;;12.70;7.30;;;;;;;21.13;67.31;99260.94;5012379;28;20200;-87
2022/07/04 05:07:41;;;;;;;9.70;7.20;;;;;;;20.60;65.75;99116.81;5018501;28;20183;-86
2022/07/04 05:10:07;;;;;;;7.80;6.10;;;;;;;22.74;64.46;99483.16;5024023;28;20475;-90
2022/07/04 05:12:33;;;;;;;11.40;6.40;;;;;;;21.28;63.71;99208.56;5021854;28;20206;-89
2022/07/04 05:14:58;;;;;;;10.80;6.03;;;;;;;22.84;61.99;99451.31;5014568;28;20193;-88
2022/07/04 05:17:24;;;;;;;12.30;6.50;;;;;;;22.93;62.32;99460.72;5019072;28;20189;-88
2022/07/04 05:19:50;;;;;;;13.80;6.53;;;;;;;22.17;61.81;99301.06;5032347;28;21083;-88
2022/07/04 05:22:16;;;;;;;9.23;6.30;;;;;;;22.13;60.72;99313.97;5032767;28;20693;-90
2022/07/04 05:24:41;;;;;;;10.77;6.30;;;;;;;23.24;60.32;99471.75;5015178;28;20190;-89
2022/07/04 05:27:07;;;;;;;10.80;5.97;;;;;;;23.20;59.70;99467.47;5013507;28;20624;-90
2022/07/04 05:29:33;;;;;;;9.93;6.70;;;;;;;23.42;59.37;99463.91;5032757;28;20203;-89
2022/07/04 05:31:58;;;;;;;16.13;6.80;;;;;;;22.06;57.53;99142.94;5034120;28;20689;-90
2022/07/04 05:34:24;;;;;;;12.43;6.60;;;;;;;21.24;57.72;99044.63;5035819;28;20197;-89
2022/07/04 05:36:49;;;;;;;12.37;6.37;;;;;;;22.68;57.35;99247.47;5035595;28;20189;-90
2022/07/04 05:39:15;;;;;;;7.67;5.97;;;;;;;21.95;57.27;99188.56;5034499;28;20213;-90
2022/07/04 05:41:40;;;;;;;11.27;5.87;;;;;;;23.75;57.25;99468.81;5033843;28;20250;-91
2022/07/04 05:44:06;;;;;;;9.73;5.80;;;;;;;23.20;55.68;99353.81;5033606;28;20190;-89
2022/07/04 05:46:31;;;;;;;8.80;5.83;;;;;;;22.18;55.55;99191.03;5031627;28;20224;-92
2022/07/04 05:48:57;;;;;;;12.80;5.47;;;;;;;24.25;54.19;99471.00;5050592;28;20186;-90
2022/07/04 05:51:22;;;;;;;9.40;5.70;;;;;;;23.62;52.27;99301.78;5024678;28;20265;-90
2022/07/04 05:53:48;;;;;;;9.80;5.60;;;;;;;24.73;51.54;99474.75;5028627;28;20276;-91
2022/07/04 05:56:13;;;;;;;10.07;5.50;;;;;;;22.36;50.17;99033.53;5020727;28;20267;-92
2022/07/04 05:58:40;;;;;;;8.67;5.30;;;;;;;23.50;51.06;99281.22;5033879;28;20278;-92
2022/07/04 06:01:05;;;;;;;10.53;5.37;;;;;;;23.33;49.91;99200.38;5033669;28;20206;-86
2022/07/04 06:03:31;;;;;;;10.70;5.10;;;;;;;23.77;50.30;99262.81;5033497;28;20182;-89
2022/07/04 06:05:57;;;;;;;7.93;5.33;;;;;;;23.77;50.84;99342.97;5036456;28;20185;-91
2022/07/04 06:08:23;;;;;;;8.13;5.50;;;;;;;23.60;50.57;99350.03;5035007;28;20188;-89
2022/07/04 06:10:48;;;;;;;7.80;5.57;;;;;;;21.99;49.56;99051.06;5035422;28;20853;-91
2022/07/04 06:13:13;;;;;;;11.27;5.90;;;;;;;25.12;48.74;99463.03;5035714;28;20661;-91
2022/07/04 06:15:39;;;;;;;10.77;5.90;;;;;;;24.14;48.39;99263.28;5050294;28;20277;-90
2022/07/04 06:18:04;;;;;;;8.53;5.73;;;;;;;23.89;48.03;99230.78;5034643;28;20185;-88
2022/07/04 06:20:30;;;;;;;6.83;5.17;;;;;;;24.00;47.32;99267.72;5034358;28;20238;-88
2022/07/04 06:22:56;;;;;;;10.90;5.87;;;;;;;25.02;46.94;99413.09;5034909;28;20261;-88
2022/07/04 06:25:22;;;;;;;7.07;5.30;;;;;;;24.19;47.50;99335.63;5033879;28;20272;-91
2022/07/04 06:27:49;;;;;;;6.70;5.03;;;;;;;23.70;48.30;99287.03;5034206;28;20214;-89
2022/07/04 06:30:15;;;;;;;9.73;5.80;;;;;;;23.89;48.64;99323.91;5032587;28;20182;-90
2022/07/04 06:32:41;;;;;;;9.30;5.53;;;;;;;25.17;47.85;99441.38;5034315;28;20261;-89
2022/07/04 06:37:51;;;;;;;7.33;4.73;;;;;;;25.55;46.25;99408.84;5034648;28;20724;-92
2022/07/04 06:40:17;;;;;;;7.70;5.17;;;;;;;25.53;47.24;99446.91;5034359;28;20229;-91
2022/07/04 06:42:42;;;;;;;8.70;5.23;;;;;;;24.14;47.76;99249.47;5034819;28;20194;-92
2022/07/04 06:45:08;;;;;;;8.40;5.40;;;;;;;25.41;47.79;99449.69;5038152;28;20264;-90
2022/07/04 06:47:34;;;;;;;8.43;5.17;;;;;;;25.29;46.08;99336.66;5039937;28;20219;-90
2022/07/04 06:49:59;;;;;;;7.83;5.50;;;;;;;23.92;47.23;99148.88;5031971;28;20208;-88
2022/07/04 06:52:24;;;;;;;7.80;5.40;;;;;;;25.62;47.76;99426.88;5033442;28;20244;-89
2022/07/04 06:54:50;;;;;;;8.43;5.33;;;;;;;23.42;46.09;99025.50;5028326;28;20194;-90
2022/07/04 06:57:15;;;;;;;12.50;5.37;;;;;;;23.22;45.80;98974.91;5016166;28;20240;-92
2022/07/04 06:59:41;;;;;;;9.07;5.73;;;;;;;24.61;45.22;99058.09;5027014;28;20573;-90
2022/07/04 07:02:06;;;;;;;7.17;5.10;;;;;;;24.90;44.78;99187.91;5027191;28;20281;-90
2022/07/04 07:04:32;;;;;;;8.87;5.50;;;;;;;24.50;46.13;99182.50;5033596;28;20201;-89
2022/07/04 07:06:57;;;;;;;8.13;5.30;;;;;;;25.46;45.36;99328.59;5040493;28;20225;-89
2022/07/04 07:09:22;;;;;;;7.27;5.70;;;;;;;24.75;44.27;99154.47;5015752;28;20194;-91
2022/07/04 07:11:48;;;;;;;11.87;5.83;;;;;;;25.35;43.64;99242.41;5014581;28;20179;-89
2022/07/04 07:14:13;;;;;;;8.73;5.20;;;;;;;24.99;43.39;99185.19;5016754;28;20183;-90
2022/07/04 07:16:41;;;;;;;6.47;5.10;;;;;;;26.50;42.98;99411.44;5033582;28;20216;-89
2022/07/04 07:19:07;;;;;;;7.37;5.40;;;;;;;25.76;43.73;99230.38;5029656;28;20194;-91
2022/07/04 07:21:32;;;;;;;8.27;5.63;;;;;;;27.35;42.82;99384.44;5036075;28;20216;-91
2022/07/04 07:24:00;;;;;;;10.13;5.57;;;;;;;25.75;43.25;99157.78;5036279;28;20187;-88
2022/07/04 07:26:25;;;;;;;8.75;5.20;;;;;;;26.76;42.18;99248.06;5015472;28;20240;-89
2022/07/04 07:28:51;;;;;;;10.00;5.22;;;;;;;26.63;42.30;99278.69;5015663;28;20200;-88
2022/07/04 07:31:16;;;;;;;6.35;5.10;;;;;;;26.82;42.45;99286.94;5017671;28;20189;-88
2022/07/04 07:33:41;;;;;;;8.02;5.25;;;;;;;26.96;42.43;99329.03;5021025;28;20180;-89
2022/07/04 07:36:07;;;;;;;7.90;5.57;;;;;;;26.67;42.17;99316.69;5028326;28;20192;-85
2022/07/04 07:38:32;;;;;;;7.50;5.45;;;;;;;25.99;42.57;99144.28;5019130;28;20199;-88
2022/07/04 07:40:58;;;;;;;7.40;5.70;;;;;;;26.93;42.27;99309.19;5016150;28;20209;-88
2022/07/04 07:43:23;;;;;;;10.55;5.68;;;;;;;26.75;41.73;99210.03;5014651;28;20179;-88
2022/07/04 07:45:49;;;;;;;8.63;6.50;;;;;;;26.99;41.15;99205.97;5013808;28;20891;-88
2022/07/04 07:48:14;;;;;;;9.23;6.20;;;;;;;27.07;41.16;99224.81;5014437;28;20201;-87
2022/07/04 07:50:39;;;;;;;11.23;6.30;;;;;;;27.78;40.71;99333.03;5015818;28;20189;-88
2022/07/04 07:53:05;;;;;;;14.02;6.40;;;;;;;28.61;41.04;99392.34;5032102;28;20613;-87
2022/07/04 07:55:30;;;;;;;8.00;6.03;;;;;;;27.10;40.31;99186.63;5023267;28;20204;-87
2022/07/04 07:57:58;;;;;;;9.80;5.82;;;;;;;28.04;39.97;99241.25;5005049;28;20242;-83
2022/07/04 08:00:24;;;;;;;7.00;5.90;;;;;;;29.59;38.44;99389.28;5011883;28;20685;-88
2022/07/04 08:05:33;;;;;;;10.00;6.13;;;;;;;27.25;38.72;98957.41;5014479;28;20892;-90
2022/07/04 08:07:59;;;;;;;8.57;5.90;;;;;;;28.94;38.29;99320.97;5017548;28;20184;-89
2022/07/04 08:10:25;;;;;;;7.97;5.68;;;;;;;26.62;38.71;98917.72;5016245;28;20174;-92
2022/07/04 08:12:51;;;;;;;8.25;5.85;;;;;;;29.14;38.78;99333.38;5021462;28;20192;-91
2022/07/04 08:15:17;;;;;;;8.20;5.60;;;;;;;28.48;39.58;99297.22;5023062;28;20216;-89
2022/07/04 08:17:44;;;;;;;10.93;5.80;;;;;;;29.02;39.24;99344.19;5028937;28;20217;-88
2022/07/04 08:20:11;;;;;;;9.15;5.82;;;;;;;28.04;38.01;99078.13;5028133;28;20217;-91
2022/07/04 08:22:36;;;;;;;7.22;5.25;;;;;;;29.63;37.76;99353.50;5016032;28;20204;-90
2022/07/04 08:25:02;;;;;;;9.50;5.45;;;;;;;26.81;38.17;98935.34;5023197;28;20193;-88
2022/07/04 08:27:28;;;;;;;8.73;5.57;;;;;;;28.04;37.00;98996.59;5037229;28;20205;-88
2022/07/04 08:29:53;;;;;;;8.98;5.95;;;;;;;30.27;36.89;99373.00;5032336;28;20193;-87
2022/07/04 08:32:19;;;;;;;9.90;5.90;;;;;;;29.74;36.86;99187.78;5029921;28;20184;-88
2022/07/04 08:34:45;;;;;;;9.90;5.80;;;;;;;29.77;35.79;99189.44;5027642;28;20180;-89
2022/07/04 08:37:11;;;;;;;10.15;6.13;;;;;;;31.02;35.60;99322.19;5049946;28;20286;-87
2022/07/04 08:39:36;;;;;;;8.25;5.45;;;;;;;30.41;36.16;99368.13;5029163;28;20649;-88
2022/07/04 08:42:10;;;;;;;5.72;5.10;;;;;;;30.11;35.64;99324.81;5020181;28;20263;-89
2022/07/04 08:44:39;;;;;;;7.32;5.00;;;;;;;30.48;35.25;99372.22;5033162;28;20213;-87
2022/07/04 08:47:10;;;;;;;8.80;5.45;;;;;;;30.15;35.64;99306.38;5035124;28;20272;-88
2022/07/04 08:49:38;;;;;;;7.05;5.80;;;;;;;29.79;36.15;99205.88;5035207;28;20230;-90
2022/07/04 08:52:05;;;;;;;9.02;5.93;;;;;;;29.89;36.73;99253.44;5026288;28;20200;-88
2022/07/04 09:00:04;;;;;;;7.05;5.50;;;;;;;30.08;35.87;99127.31;5013679;28;20287;-87
2022/07/04 09:02:29;;;;;;;10.52;5.75;;;;;;;32.26;34.08;99376.25;5030597;28;20651;-89
2022/07/04 09:04:55;;;;;;;9.57;5.80;;;;;;;32.00;33.57;99307.53;5029213;28;20185;-87
2022/07/04 09:07:22;;;;;;;8.90;5.40;;;;;;;31.75;32.87;99293.81;5018151;28;20693;-89
2022/07/04 09:09:48;;;;;;;5.90;4.90;;;;;;;30.95;32.71;99172.53;5012430;28;20177;-88
2022/07/04 09:12:15;;;;;;;7.85;4.90;;;;;;;32.23;31.56;99330.09;5016759;28;20184;-89
2022/07/04 09:14:40;;;;;;;7.50;4.57;;;;;;;31.91;28.31;99286.97;5028441;28;20430;-88
2022/07/04 09:17:06;;;;;;;5.40;4.00;;;;;;;32.32;27.35;99370.75;5022147;28;20648;-86
2022/07/04 09:19:32;;;;;;;4.72;4.20;;;;;;;32.68;26.89;99362.09;5037806;28;20749;-89
2022/07/04 09:22:11;;;;;;;7.57;4.47;;;;;;;32.98;27.63;99370.28;5045814;28;20250;-89
2022/07/04 09:24:45;;;;;;;6.45;4.50;;;;;;;32.74;27.95;99339.13;5041603;28;20192;-92
2022/07/04 09:27:11;;;;;;;6.68;4.63;;;;;;;33.04;28.29;99370.00;5039945;28;20197;-91
2022/07/04 09:29:53;;;;;;;8.07;5.22;;;;;;;33.13;28.49;99355.56;5046422;28;20228;-89
2022/07/04 09:32:46;;;;;;;7.95;4.93;;;;;;;32.95;28.54;99325.81;5037199;28;20237;-88
2022/07/04 09:35:34;;;;;;;10.10;5.60;;;;;;;32.82;28.88;99345.69;4982121;28;20206;-88
2022/07/04 09:38:03;;;;;;;7.88;5.13;;;;;;;31.86;28.79;99218.25;4980320;28;20664;-88
2022/07/04 09:40:31;;;;;;;9.88;5.47;;;;;;;33.15;29.02;99344.09;4963973;28;20227;-90
2022/07/04 09:43:10;;;;;;;5.60;5.10;;;;;;;32.60;29.07;99238.38;4991227;28;20615;-90
2022/07/04 09:45:53;;;;;;;8.30;4.78;;;;;;;32.77;28.44;99245.41;4983403;28;20237;-89
2022/07/04 09:48:19;;;;;;;5.75;4.60;;;;;;;32.84;27.29;99228.44;4987676;28;20191;-89
2022/07/04 09:50:45;;;;;;;5.20;4.55;;;;;;;31.65;27.50;99076.97;4996962;28;20259;-90
2022/07/04 09:53:11;;;;;;;7.60;4.70;;;;;;;33.54;27.46;99353.56;4994862;28;20227;-90
2022/07/04 09:55:41;;;;;;;6.50;4.75;;;;;;;33.62;27.97;99349.63;4994714;28;20230;-88
2022/07/04 09:58:09;;;;;;;5.95;4.50;;;;;;;30.88;28.10;98896.50;4984452;28;20318;-89
2022/07/04 10:00:37;;;;;;;5.93;4.68;;;;;;;31.57;27.31;99029.38;4986795;28;20200;-88
2022/07/04 10:03:28;;;;;;;5.68;4.50;;;;;;;33.65;26.96;99356.50;4978680;28;20285;-91
2022/07/04 10:06:04;;;;;;;7.03;4.60;;;;;;;31.51;27.96;99010.41;4975296;28;20187;-90
2022/07/04 10:08:29;;;;;;;8.55;4.90;;;;;;;31.34;28.11;99046.94;4990262;28;20183;-89
2022/07/04 10:10:59;;;;;;;5.38;4.38;;;;;;;31.30;28.57;99034.09;4996417;28;20179;-89
2022/07/04 10:13:25;;;;;;;7.47;4.70;;;;;;;33.53;27.75;99339.56;5026901;28;20224;-87
2022/07/04 10:15:51;;;;;;;7.95;4.80;;;;;;;32.60;29.16;99172.81;5033686;28;20186;-89
2022/07/04 10:18:19;;;;;;;11.68;5.00;;;;;;;32.77;29.01;99192.97;5037389;28;20266;-90
2022/07/04 10:20:46;;;;;;;9.30;5.05;;;;;;;31.76;28.20;99046.75;5033514;28;20234;-91
2022/07/04 10:23:12;;;;;;;6.30;4.85;;;;;;;33.70;28.60;99344.00;5035934;28;20259;-91
2022/07/04 10:25:37;;;;;;;8.68;5.07;;;;;;;32.83;28.83;99241.59;5037359;28;20207;-90
2022/07/04 10:28:03;;;;;;;7.90;4.90;;;;;;;31.86;28.41;99100.41;5044038;28;20245;-91
2022/07/04 10:30:32;;;;;;;7.65;5.00;;;;;;;33.69;28.43;99327.38;5037503;28;20190;-90
2022/07/04 10:33:03;;;;;;;6.22;5.00;;;;;;;33.57;28.74;99321.91;5037920;28;20241;-91
2022/07/04 10:35:53;;;;;;;6.57;5.55;;;;;;;33.43;29.69;99305.97;5040939;28;20235;-89
2022/07/04 10:38:21;;;;;;;7.68;4.80;;;;;;;31.87;29.51;99002.56;5051737;28;20190;-88
2022/07/04 10:40:48;;;;;;;5.55;4.45;;;;;;;33.91;28.46;99313.97;5043501;28;20236;-90
2022/07/04 10:43:40;;;;;;;8.18;4.78;;;;;;;33.75;28.72;99316.56;5043197;28;20254;-91
2022/07/04 10:46:12;;;;;;;6.82;4.78;;;;;;;34.03;28.66;99315.09;5044098;28;20190;-92
2022/07/04 10:48:48;;;;;;;8.60;4.72;;;;;;;32.08;28.24;98977.13;5044630;28;20190;-91
2022/07/04 10:51:15;;;;;;;7.57;5.20;;;;;;;31.83;28.94;98998.41;5041917;28;20232;-89
2022/07/04 10:54:04;;;;;;;6.55;4.78;;;;;;;33.89;28.65;99302.69;5041329;28;20200;-91
2022/07/04 10:56:29;;;;;;;6.93;4.78;;;;;;;33.82;28.90;99301.31;5040909;28;20193;-89
2022/07/04 10:59:00;;;;;;;10.90;5.03;;;;;;;32.55;30.05;99143.31;5032422;28;20237;-90
2022/07/04 11:01:25;;;;;;;6.22;5.20;;;;;;;31.14;30.42;98938.94;5044052;28;20216;-90
2022/07/04 11:03:54;;;;;;;7.50;5.10;;;;;;;31.21;30.21;99006.59;5040278;28;20197;-90
2022/07/04 11:06:32;;;;;;;13.55;5.70;;;;;;;33.23;30.47;99293.84;5041764;28;20225;-89
2022/07/04 11:09:20;;;;;;;6.32;5.22;;;;;;;33.66;30.60;99298.63;5043676;28;20182;-91
2022/07/04 11:12:09;;;;;;;5.93;4.63;;;;;;;32.74;30.30;99114.44;5044536;28;20197;-88
2022/07/04 11:14:36;;;;;;;7.28;4.95;;;;;;;33.39;30.38;99212.53;5030976;28;20196;-90
2022/07/04 11:17:04;;;;;;;5.70;5.15;;;;;;;33.64;30.51;99207.72;5040865;28;20190;-90
2022/07/04 11:19:29;;;;;;;7.65;4.82;;;;;;;30.81;29.76;98748.72;5045814;28;20686;-90
2022/07/04 11:21:56;;;;;;;8.38;5.05;;;;;;;32.50;28.89;99032.56;5043394;28;20237;-89
2022/07/04 11:24:22;;;;;;;7.03;4.85;;;;;;;32.00;29.22;98938.19;5037072;28;20228;-90
2022/07/04 11:26:48;;;;;;;7.43;5.65;;;;;;;32.74;29.08;99061.13;5043669;28;20186;-89
2022/07/04 11:29:14;;;;;;;8.15;5.47;;;;;;;32.29;30.13;99028.44;5044681;28;20185;-90
2022/07/04 11:31:45;;;;;;;5.78;5.00;;;;;;;33.87;28.97;99267.75;5046084;28;20190;-89
2022/07/04 11:34:12;;;;;;;7.13;4.95;;;;;;;32.08;29.14;99009.38;5041732;28;20186;-90
2022/07/04 11:36:43;;;;;;;8.15;4.80;;;;;;;33.00;29.18;99137.53;5045020;28;20189;-88
2022/07/04 11:39:12;;;;;;;7.45;4.95;;;;;;;34.28;29.35;99271.66;5045335;28;20216;-89
2022/07/04 11:47:16;;;;;;;5.63;4.82;;;;;;;36.07;28.01;99263.78;5047526;28;20266;-90
2022/07/04 11:49:46;;;;;;;5.97;4.40;;;;;;;35.29;26.34;99003.50;5035724;28;20195;-89
2022/07/04 11:52:13;;;;;;;8.63;5.03;;;;;;;34.92;26.31;98918.06;5055423;28;20194;-90